createdAt,value
2023-01-20T00:14:41.936Z,18.34
2023-01-20T00:29:31.368Z,17.11
2023-01-20T00:44:26.105Z,20.17
2023-01-20T00:59:10.911Z,16.83
2023-01-20T01:14:00.941Z,17.23
2023-01-20T01:28:50.736Z,16.33
2023-01-20T01:43:40.513Z,17.53
2023-01-20T01:58:35.002Z,16.74
2023-01-20T02:13:30.222Z,14.73
2023-01-20T02:28:37.722Z,15.24
2023-01-20T03:13:55.777Z,15.73
2023-01-20T03:28:50.561Z,15.06
2023-01-20T03:43:39.968Z,12.88
2023-01-20T03:58:29.907Z,13.72
2023-01-20T04:13:21.159Z,12.19
2023-01-20T04:28:10.671Z,11.36
2023-01-20T04:43:00.819Z,12.91
2023-01-20T04:57:50.352Z,13.26
2023-01-20T05:12:39.501Z,11.80
2023-01-20T05:27:29.387Z,11.90
2023-01-20T05:42:19.053Z,11.53
2023-01-20T05:57:08.730Z,13.21
2023-01-20T06:11:57.899Z,14.84
2023-01-20T06:26:47.787Z,13.21
2023-01-20T06:41:38.096Z,12.19
2023-01-20T06:56:28.427Z,9.99
2023-01-20T07:11:17.606Z,11.90
2023-01-20T07:26:07.460Z,13.16
2023-01-20T07:40:59.051Z,10.56
2023-01-20T07:55:53.891Z,10.54
2023-01-20T08:10:45.422Z,11.86
2023-01-20T08:25:35.785Z,8.78
2023-01-20T08:40:26.280Z,13.52
2023-01-20T08:55:17.299Z,14.38
2023-01-20T09:10:07.770Z,17.99
2023-01-20T09:24:58.597Z,17.01
2023-01-20T09:40:07.229Z,14.36
2023-01-20T09:55:09.857Z,14.94
2023-01-20T10:10:22.779Z,19.03
2023-01-20T10:25:21.558Z,16.80
2023-01-20T10:40:17.465Z,17.57
2023-01-20T10:55:28.744Z,20.18
2023-01-20T11:10:26.799Z,21.71
2023-01-20T11:25:26.520Z,19.78
2023-01-20T11:40:22.882Z,19.34
2023-01-20T11:55:22.498Z,17.79
2023-01-20T12:10:21.298Z,18.98
2023-01-20T12:25:15.138Z,17.61
2023-01-20T12:40:14.203Z,15.32
2023-01-20T12:55:27.295Z,16.11
2023-01-20T13:10:38.538Z,10.08
2023-01-20T13:25:33.315Z,11.54
2023-01-20T13:40:33.982Z,8.74
2023-01-20T13:55:31.354Z,10.67
2023-01-20T14:10:23.973Z,10.49
2023-01-20T14:25:21.995Z,8.43
2023-01-20T14:40:14.931Z,11.04
2023-01-20T14:55:05.022Z,9.60
2023-01-20T15:10:04.542Z,7.81
2023-01-20T15:24:59.066Z,10.44
2023-01-20T15:39:48.861Z,13.51
2023-01-20T15:54:38.516Z,10.47
2023-01-20T16:09:27.570Z,8.91
2023-01-20T16:24:17.172Z,12.21
2023-01-20T16:39:07.022Z,8.73
2023-01-20T16:53:56.719Z,11.14
2023-01-20T17:08:47.257Z,7.20
2023-01-20T17:23:37.104Z,8.59
2023-01-20T17:38:26.613Z,8.78
2023-01-20T17:53:16.041Z,7.39
2023-01-20T18:08:11.146Z,7.69
2023-01-20T18:22:56.755Z,7.02
2023-01-20T18:37:47.647Z,9.96
2023-01-20T18:52:39.038Z,8.88
2023-01-20T19:07:31.649Z,8.62
2023-01-20T19:22:21.988Z,12.78
2023-01-20T19:37:12.325Z,12.44
2023-01-20T19:52:03.206Z,12.02
2023-01-20T20:06:53.846Z,12.06
2023-01-20T20:21:43.430Z,15.22
2023-01-20T20:36:32.588Z,15.13
2023-01-20T20:51:22.034Z,12.73
2023-01-20T21:06:11.917Z,11.44
2023-01-20T21:21:01.838Z,9.33
2023-01-20T21:35:52.231Z,10.72
2023-01-20T21:51:00.143Z,15.60
2023-01-20T22:05:56.212Z,14.48
2023-01-20T22:20:46.816Z,16.54
2023-01-20T22:35:36.812Z,14.09
2023-01-20T22:50:27.103Z,14.92
2023-01-20T23:05:17.431Z,15.14
2023-01-20T23:20:07.385Z,11.51
2023-01-20T23:34:58.260Z,12.67
2023-01-20T23:49:48.922Z,12.27
